Time;durP1;ratioP1;P1;durP2;ratioP2;P2;SDS_P1;SDS_P2;PMS_P1;PMS_P2;Temp;Humidity;BMP_temperature;BMP_pressure;BME280_temperature;BME280_humidity;BME280_pressure;Samples;Min_cycle;Max_cycle;Signal;HPM_P1;HPM_P2
2023/01/14 00:01:57;;;;;;;;;1.00;1.00;;;;;9.34;84.86;101681.50;5017658;28;45240;-87
2023/01/14 00:04:23;;;;;;;;;1.00;1.00;;;;;9.34;85.13;101670.25;5018566;28;45468;-87
2023/01/14 00:06:50;;;;;;;;;0.00;0.00;;;;;9.34;85.34;101671.13;5017314;28;48491;-87
2023/01/14 00:09:15;;;;;;;;;5.25;0.50;;;;;9.38;85.46;101661.56;5017392;28;45709;-87
2023/01/14 00:11:46;;;;;;;;;1.00;1.00;;;;;9.41;85.87;101662.41;5017470;28;45772;-87
2023/01/14 00:14:23;;;;;;;;;1.00;0.25;;;;;9.43;84.99;101659.78;5018242;28;45411;-87
2023/01/14 00:16:50;;;;;;;;;3.00;0.00;;;;;9.44;85.77;101651.97;5033783;28;47236;-88
2023/01/14 00:19:16;;;;;;;;;2.00;0.25;;;;;9.44;86.40;101648.53;5033392;28;45687;-87
2023/01/14 00:21:43;;;;;;;;;1.50;0.50;;;;;9.48;86.33;101639.81;5018539;28;45353;-87
2023/01/14 00:24:12;;;;;;;;;2.00;0.00;;;;;9.48;86.36;101635.47;5017323;28;45556;-87
2023/01/14 00:26:37;;;;;;;;;2.25;1.00;;;;;9.49;86.70;101633.75;5018320;28;45472;-87
2023/01/14 00:29:03;;;;;;;;;1.00;1.00;;;;;9.55;86.75;101623.28;5016770;28;45423;-87
2023/01/14 00:31:30;;;;;;;;;2.25;0.00;;;;;9.58;87.10;101625.84;5017045;28;45360;-87
2023/01/14 00:33:57;;;;;;;;;1.00;0.25;;;;;9.62;87.78;101619.75;5017186;28;45351;-88
2023/01/14 00:36:24;;;;;;;;;0.00;0.00;;;;;9.63;87.41;101621.47;5016906;28;48093;-87
2023/01/14 00:38:51;;;;;;;;;0.25;0.25;;;;;9.64;87.47;101615.41;5018149;28;45270;-87
2023/01/14 00:41:20;;;;;;;;;1.50;0.00;;;;;9.62;88.18;101606.75;5016693;28;45401;-87
2023/01/14 00:43:48;;;;;;;;;1.00;1.00;;;;;9.62;89.55;101600.66;5018143;28;45702;-88
2023/01/14 00:46:17;;;;;;;;;0.00;0.00;;;;;9.59;90.40;101604.19;5018058;28;46465;-88
2023/01/14 00:48:42;;;;;;;;;1.00;1.00;;;;;9.56;90.89;101596.41;5016645;28;45472;-88
2023/01/14 00:51:08;;;;;;;;;0.00;0.00;;;;;9.55;91.00;101588.66;5017157;28;45397;-87
2023/01/14 00:53:36;;;;;;;;;0.50;0.00;;;;;9.53;91.71;101580.88;5018099;28;45483;-88
2023/01/14 00:56:02;;;;;;;;;0.50;0.50;;;;;9.53;92.21;101578.25;5017547;28;46434;-88
2023/01/14 00:58:27;;;;;;;;;1.00;0.00;;;;;9.51;92.47;101569.63;5018069;28;45305;-88
2023/01/14 01:00:54;;;;;;;;;0.00;0.00;;;;;9.51;92.73;101569.63;5016915;28;45431;-88
2023/01/14 01:03:23;;;;;;;;;0.75;0.00;;;;;9.49;92.82;101571.38;5016466;28;45537;-88
2023/01/14 01:05:50;;;;;;;;;2.25;1.00;;;;;9.50;92.84;101568.75;5016611;28;46606;-87
2023/01/14 01:08:18;;;;;;;;;1.00;0.00;;;;;9.49;92.92;101564.44;5016279;28;45610;-88
2023/01/14 01:10:45;;;;;;;;;0.75;0.25;;;;;9.47;93.22;101549.72;5016028;28;45344;-88
2023/01/14 01:13:11;;;;;;;;;1.50;0.00;;;;;9.49;93.00;101548.00;5016751;28;45399;-88
2023/01/14 01:15:37;;;;;;;;;0.00;0.00;;;;;9.48;93.30;101543.66;5016306;28;48491;-87
2023/01/14 01:18:08;;;;;;;;;3.00;0.00;;;;;9.47;93.37;101532.41;5017536;28;45352;-87
2023/01/14 01:20:33;;;;;;;;;0.00;0.00;;;;;9.47;93.62;101534.13;5032829;28;45463;-87
2023/01/14 01:22:59;;;;;;;;;2.00;0.00;;;;;9.46;93.48;101537.63;4999957;28;45229;-88
2023/01/14 01:25:25;;;;;;;;;0.00;0.00;;;;;9.45;94.15;101534.19;5017060;28;45432;-88
2023/01/14 01:27:51;;;;;;;;;0.00;0.00;;;;;9.44;93.71;101529.84;4999648;28;45604;-87
2023/01/14 01:30:16;;;;;;;;;1.75;1.00;;;;;9.43;94.56;101530.72;5016359;28;45480;-88
2023/01/14 01:32:42;;;;;;;;;1.25;0.50;;;;;9.48;94.47;101523.72;4999661;28;45475;-87
2023/01/14 01:35:08;;;;;;;;;0.25;0.25;;;;;9.49;94.43;101520.25;5016164;28;45462;-87
2023/01/14 01:37:33;;;;;;;;;0.50;0.00;;;;;9.49;94.55;101517.66;5015906;28;45630;-87
2023/01/14 01:39:59;;;;;;;;;0.50;0.50;;;;;9.53;94.40;101512.41;4999160;28;45506;-87
2023/01/14 01:42:28;;;;;;;;;2.25;0.00;;;;;9.55;94.46;101515.88;5017005;28;45400;-87
2023/01/14 01:44:53;;;;;;;;;1.00;0.25;;;;;9.58;94.81;101524.47;5015743;28;47148;-86
2023/01/14 01:47:19;;;;;;;;;1.00;1.00;;;;;9.62;94.86;101525.28;5015672;28;45286;-87
2023/01/14 01:49:46;;;;;;;;;0.50;0.00;;;;;9.63;94.76;101530.47;5016035;28;45358;-87
2023/01/14 01:52:15;;;;;;;;;3.25;1.00;;;;;9.67;94.55;101523.50;4999453;28;45470;-87
2023/01/14 01:54:54;;;;;;;;;1.00;0.50;;;;;9.69;94.97;101526.94;5015373;28;46206;-87
2023/01/14 01:57:19;;;;;;;;;0.00;0.00;;;;;9.72;94.80;101516.50;5015732;28;45917;-87
2023/01/14 01:59:50;;;;;;;;;0.50;0.00;;;;;9.77;94.88;101508.63;4999412;28;45410;-87
2023/01/14 02:02:15;;;;;;;;;1.75;0.00;;;;;9.80;95.06;101509.47;5015697;28;45435;-85
2023/01/14 02:04:41;;;;;;;;;0.00;0.00;;;;;9.85;95.07;101502.47;4998862;28;46304;-85
2023/01/14 02:07:20;;;;;;;;;0.00;0.00;;;;;9.91;95.58;101501.50;5015386;28;45317;-85
2023/01/14 02:09:46;;;;;;;;;1.25;0.00;;;;;9.94;95.46;101498.03;5016596;28;45386;-86
2023/01/14 02:12:43;;;;;;;;;0.75;0.75;;;;;9.95;95.83;101486.72;5015597;28;45402;-86
2023/01/14 02:15:23;;;;;;;;;0.00;0.00;;;;;9.97;96.16;101480.59;5016521;28;45486;-86
2023/01/14 02:18:10;;;;;;;;;1.00;1.00;;;;;9.99;96.35;101478.00;5015278;28;45306;-85
2023/01/14 02:20:46;;;;;;;;;0.00;0.00;;;;;10.03;96.51;101466.69;5031803;28;45514;-86
2023/01/14 02:23:26;;;;;;;;;0.00;0.00;;;;;10.06;96.38;101456.22;5014477;28;45405;-86
2023/01/14 02:26:10;;;;;;;;;0.00;0.00;;;;;10.06;96.38;101451.88;5016389;28;46991;-86
2023/01/14 02:29:13;;;;;;;;;1.00;0.00;;;;;10.07;96.32;101455.34;5016298;28;45688;-85
2023/01/14 02:31:48;;;;;;;;;1.25;0.00;;;;;10.04;96.30;101439.78;5031930;28;45400;-87
2023/01/14 02:34:21;;;;;;;;;1.75;0.00;;;;;10.07;96.52;101455.34;5015478;28;45417;-86
2023/01/14 02:37:03;;;;;;;;;0.75;0.00;;;;;10.09;96.61;101448.38;5014930;28;45514;-87
2023/01/14 02:39:39;;;;;;;;;1.00;0.00;;;;;10.11;96.73;101457.00;5016023;28;45265;-86
2023/01/14 02:45:19;;;;;;;;;0.50;0.00;;;;;10.12;96.33;101447.47;5036497;28;45532;-87
2023/01/14 02:47:46;;;;;;;;;0.00;0.00;;;;;10.15;96.15;101453.47;5018119;28;47337;-87
2023/01/14 02:50:12;;;;;;;;;1.00;0.00;;;;;10.16;95.54;101463.00;5034915;28;45701;-85
2023/01/14 02:52:37;;;;;;;;;0.00;0.00;;;;;10.15;95.47;101450.88;5034637;28;45393;-85
2023/01/14 02:55:23;;;;;;;;;0.00;0.00;;;;;10.19;95.60;101447.34;5034921;28;45489;-87
2023/01/14 02:58:00;;;;;;;;;0.00;0.00;;;;;10.21;95.21;101429.09;5035628;28;46744;-87
2023/01/14 03:00:50;;;;;;;;;0.00;0.00;;;;;10.21;94.51;101424.75;5034364;28;45716;-86
2023/01/14 03:03:54;;;;;;;;;1.50;0.00;;;;;10.23;95.46;101417.81;5027529;28;45473;-86
2023/01/14 03:06:29;;;;;;;;;1.00;0.00;;;;;10.24;94.77;101416.06;4935357;28;45396;-87
2023/01/14 03:09:03;;;;;;;;;1.00;0.00;;;;;10.27;94.55;101413.41;4919199;28;45823;-86
2023/01/14 03:11:56;;;;;;;;;0.00;0.00;;;;;10.25;94.62;101409.94;4919423;28;45692;-87
2023/01/14 03:14:31;;;;;;;;;0.50;0.00;;;;;10.26;93.74;101406.47;4933081;28;45511;-86
2023/01/14 03:17:03;;;;;;;;;1.75;0.00;;;;;10.28;93.67;101400.34;4919292;28;45612;-85
2023/01/14 03:19:34;;;;;;;;;1.25;0.00;;;;;10.30;94.22;101376.06;4935194;28;46593;-87
2023/01/14 03:22:02;;;;;;;;;1.00;0.00;;;;;10.34;93.64;101380.34;4919136;28;45689;-86
2023/01/14 03:24:48;;;;;;;;;1.25;0.00;;;;;10.37;93.39;101372.50;4919568;28;45482;-87
2023/01/14 03:27:19;;;;;;;;;1.00;0.00;;;;;10.38;93.19;101366.38;4934839;28;45381;-87
2023/01/14 03:29:46;;;;;;;;;0.00;0.00;;;;;10.38;93.33;101355.97;4935147;28;45420;-87
2023/01/14 03:32:20;;;;;;;;;0.25;0.00;;;;;10.42;92.31;101345.50;4935197;28;45439;-86
2023/01/14 03:34:56;;;;;;;;;0.00;0.00;;;;;10.42;92.93;101336.84;4935588;28;45483;-87
2023/01/14 03:37:22;;;;;;;;;0.50;0.00;;;;;10.43;92.65;101331.59;4922150;28;45472;-87
2023/01/14 03:39:49;;;;;;;;;0.00;0.00;;;;;10.41;91.23;101328.16;4922528;28;45507;-87
2023/01/14 03:42:20;;;;;;;;;1.25;0.00;;;;;10.42;91.94;101322.06;4936291;28;45583;-88
2023/01/14 03:44:58;;;;;;;;;0.00;0.00;;;;;10.42;91.31;101316.88;5017834;28;45388;-87
2023/01/14 03:47:26;;;;;;;;;2.00;0.00;;;;;10.41;91.38;101302.13;5017677;28;45494;-87
2023/01/14 03:49:52;;;;;;;;;0.00;0.00;;;;;10.42;91.34;101311.66;5017326;28;46977;-87
2023/01/14 03:53:02;;;;;;;;;0.75;0.00;;;;;10.42;91.53;101309.06;5017848;28;45568;-87
2023/01/14 03:55:52;;;;;;;;;0.00;0.00;;;;;10.47;91.63;101298.53;5016919;28;45536;-88
2023/01/14 03:58:57;;;;;;;;;0.25;0.00;;;;;10.51;91.48;101292.41;5018213;28;45472;-87
2023/01/14 04:01:28;;;;;;;;;0.00;0.00;;;;;10.51;91.37;101288.94;5017727;28;47324;-87
2023/01/14 04:03:56;;;;;;;;;0.00;0.00;;;;;10.52;90.88;101283.69;5017373;28;45656;-87
2023/01/14 04:06:21;;;;;;;;;1.75;0.00;;;;;10.52;90.94;101288.06;5017479;28;45435;-87
2023/01/14 04:08:47;;;;;;;;;0.00;0.00;;;;;10.54;90.75;101276.72;5033929;28;45381;-86
2023/01/14 04:11:12;;;;;;;;;0.25;0.00;;;;;10.52;90.97;101268.09;5017403;28;45302;-86
2023/01/14 04:16:22;;;;;;;;;1.75;0.00;;;;;10.54;90.61;101240.28;5017697;28;45413;-87
2023/01/14 04:18:47;;;;;;;;;0.00;0.00;;;;;10.57;90.64;101237.63;5016899;28;45241;-87
2023/01/14 04:21:12;;;;;;;;;0.00;0.00;;;;;10.56;90.29;101242.84;5018506;28;45422;-86
2023/01/14 04:23:38;;;;;;;;;0.50;0.00;;;;;10.59;91.07;101235.84;5018443;28;45384;-87
2023/01/14 04:26:03;;;;;;;;;4.50;1.00;;;;;10.61;91.18;101238.41;5017341;28;45374;-87
2023/01/14 04:28:29;;;;;;;;;1.00;1.00;;;;;10.62;91.38;101220.16;5017343;28;45540;-87
2023/01/14 04:30:54;;;;;;;;;0.00;0.00;;;;;10.62;90.12;101230.59;5016991;28;47971;-85
2023/01/14 04:33:20;;;;;;;;;0.00;0.00;;;;;10.61;90.80;101226.25;5000159;28;45321;-87
2023/01/14 04:35:48;;;;;;;;;0.25;0.25;;;;;10.63;90.48;101232.28;5017337;28;45406;-87
2023/01/14 04:38:14;;;;;;;;;0.00;0.00;;;;;10.64;91.00;101228.78;5017109;28;45436;-87
2023/01/14 04:40:40;;;;;;;;;2.00;0.00;;;;;10.68;90.94;101221.78;5018084;28;46556;-87
2023/01/14 04:43:05;;;;;;;;;0.00;0.00;;;;;10.68;90.35;101219.19;5013577;28;45377;-87
2023/01/14 04:45:30;;;;;;;;;0.00;0.00;;;;;10.67;89.50;101214.84;5036375;28;45464;-86
2023/01/14 04:47:56;;;;;;;;;0.00;0.00;;;;;10.65;89.25;101230.50;5036119;28;45327;-86
2023/01/14 04:50:41;;;;;;;;;2.50;0.00;;;;;10.67;90.49;101214.84;5036300;28;59035;-86
2023/01/14 04:53:21;;;;;;;;;2.25;1.00;;;;;10.67;90.40;101195.78;5037791;28;45467;-87
2023/01/14 04:55:47;;;;;;;;;1.50;0.00;;;;;10.68;90.67;101187.94;5037895;28;45462;-87
2023/01/14 04:58:15;;;;;;;;;1.50;1.00;;;;;10.70;89.97;101183.53;5036455;28;45358;-87
2023/01/14 05:00:41;;;;;;;;;1.00;1.00;;;;;10.68;89.59;101179.25;5036335;28;46344;-86
2023/01/14 05:03:09;;;;;;;;;1.00;0.00;;;;;10.70;89.69;101170.53;5031333;28;45297;-85
2023/01/14 05:05:36;;;;;;;;;1.25;1.00;;;;;10.69;89.92;101181.81;5017708;28;45413;-87
2023/01/14 05:08:03;;;;;;;;;1.75;0.25;;;;;10.69;89.70;101168.78;4999919;28;45400;-87
2023/01/14 05:10:29;;;;;;;;;2.25;0.25;;;;;10.71;90.33;101163.56;5033140;28;47115;-88
2023/01/14 05:12:58;;;;;;;;;5.75;1.00;;;;;10.74;89.58;101166.09;5016409;28;45635;-87
2023/01/14 05:15:31;;;;;;;;;1.50;1.00;;;;;10.76;89.43;101172.97;5017660;28;45299;-86
2023/01/14 05:17:56;;;;;;;;;2.50;0.50;;;;;10.77;89.65;101164.28;4999553;28;45535;-87
2023/01/14 05:20:26;;;;;;;;;5.00;1.00;;;;;10.78;88.59;101165.13;5017099;28;45371;-85
2023/01/14 05:22:57;;;;;;;;;5.00;1.50;;;;;10.74;88.41;101151.34;5016647;28;45905;-86
2023/01/14 05:25:23;;;;;;;;;2.00;0.00;;;;;10.75;89.30;101152.19;5017590;28;45420;-87
2023/01/14 05:27:50;;;;;;;;;1.25;0.00;;;;;10.76;89.28;101152.16;5017553;28;45542;-87
2023/01/14 05:30:16;;;;;;;;;0.75;0.00;;;;;10.75;88.19;101146.97;5016045;28;46184;-87
2023/01/14 05:32:41;;;;;;;;;1.75;1.00;;;;;10.74;88.78;101124.44;5016878;28;45474;-88
2023/01/14 05:35:10;;;;;;;;;3.00;0.00;;;;;10.79;88.56;101128.66;5016364;28;45413;-87
2023/01/14 05:37:35;;;;;;;;;1.75;0.00;;;;;10.80;88.46;101109.50;5016218;28;45454;-88
2023/01/14 05:40:01;;;;;;;;;3.00;1.00;;;;;10.81;88.39;101107.78;5016063;28;46732;-86
2023/01/14 05:47:56;;;;;;;;;2.00;0.00;;;;;10.81;87.96;101090.41;5016868;28;45349;-87
2023/01/14 05:50:21;;;;;;;;;0.50;0.00;;;;;10.81;88.12;101076.53;5015770;28;46307;-87
2023/01/14 05:52:47;;;;;;;;;1.00;1.00;;;;;10.79;87.36;101076.56;5015761;28;45361;-87
2023/01/14 05:55:12;;;;;;;;;0.00;0.00;;;;;10.78;88.15;101085.25;5015990;28;45468;-88
2023/01/14 05:57:37;;;;;;;;;0.50;0.00;;;;;10.76;88.33;101062.78;5014767;28;45445;-88
2023/01/14 06:06:20;;;;;;;;;1.25;0.50;;;;;10.74;88.53;101057.59;5016735;28;47176;-88
2023/01/14 06:08:09;;;;;;;;;1.00;0.00;;;;;10.71;88.53;101044.66;5015683;28;45453;-87
2023/01/14 06:10:36;;;;;;;;;0.00;0.00;;;;;10.71;88.23;101046.41;4999092;28;46963;-88
2023/01/14 06:13:06;;;;;;;;;1.25;0.50;;;;;10.73;87.37;101032.44;5015664;28;45871;-86
2023/01/14 06:15:36;;;;;;;;;1.00;1.00;;;;;10.70;87.82;101037.75;4999281;28;45290;-87
2023/01/14 06:18:38;;;;;;;;;0.00;0.00;;;;;10.69;87.57;101023.00;5015657;28;45612;-86
2023/01/14 06:20:54;;;;;;;;;1.00;1.00;;;;;10.68;88.27;101029.13;5016767;28;46911;-87
2023/01/14 06:23:21;;;;;;;;;1.00;0.75;;;;;10.65;87.86;101017.00;5014862;28;63023;-86
2023/01/14 06:25:49;;;;;;;;;1.50;0.00;;;;;10.60;87.17;101024.06;5016666;28;45455;-87
2023/01/14 06:28:16;;;;;;;;;0.00;0.00;;;;;10.61;88.21;101018.00;5016598;28;45456;-88
2023/01/14 06:30:42;;;;;;;;;0.00;0.00;;;;;10.59;87.62;101024.13;4998318;28;48567;-88
2023/01/14 06:33:13;;;;;;;;;0.75;0.00;;;;;10.59;88.45;100992.91;5031919;28;46088;-88
2023/01/14 06:35:43;;;;;;;;;5.25;0.00;;;;;10.57;88.43;100986.88;5015596;28;45407;-87
2023/01/14 06:38:13;;;;;;;;;0.00;0.00;;;;;10.56;88.54;100999.00;5015230;28;45330;-87
2023/01/14 06:40:39;;;;;;;;;1.50;0.00;;;;;10.56;88.73;100985.16;5016226;28;46024;-87
2023/01/14 06:43:07;;;;;;;;;1.00;0.00;;;;;10.55;89.29;100989.50;5016120;28;45383;-88
2023/01/14 06:45:32;;;;;;;;;1.25;0.00;;;;;10.53;88.82;100975.69;5016013;28;45437;-88
2023/01/14 06:47:58;;;;;;;;;3.00;1.00;;;;;10.51;89.76;100990.50;5016270;28;45509;-87
2023/01/14 06:50:24;;;;;;;;;0.50;0.00;;;;;10.49;89.30;100974.03;5014581;28;47170;-87
2023/01/14 06:52:52;;;;;;;;;2.25;0.25;;;;;10.48;89.45;100980.16;5016352;28;45382;-88
2023/01/14 06:55:18;;;;;;;;;2.00;0.00;;;;;10.49;89.86;100974.03;5015482;28;45433;-88
2023/01/14 06:57:44;;;;;;;;;1.00;0.00;;;;;10.52;89.88;100962.72;5014835;28;45544;-85
2023/01/14 07:00:10;;;;;;;;;2.00;0.75;;;;;10.53;89.50;100980.00;5014452;28;46861;-87
2023/01/14 07:02:35;;;;;;;;;3.00;0.00;;;;;10.54;89.37;100960.91;5015761;28;45376;-81
2023/01/14 07:05:01;;;;;;;;;1.25;0.75;;;;;10.55;89.51;100950.47;5016144;28;45447;-82
2023/01/14 07:07:26;;;;;;;;;1.25;0.75;;;;;10.57;90.37;100955.66;5015800;28;45413;-81
2023/01/14 07:09:52;;;;;;;;;0.00;0.00;;;;;10.57;89.83;100945.22;5015143;28;56957;-83
2023/01/14 07:12:17;;;;;;;;;0.00;0.00;;;;;10.57;89.43;100940.88;5029529;28;59869;-83
2023/01/14 07:14:42;;;;;;;;;2.00;1.00;;;;;10.58;89.71;100950.38;5014306;28;45384;-83
2023/01/14 07:17:08;;;;;;;;;0.50;0.00;;;;;10.60;89.98;100942.53;5014850;28;61958;-84
2023/01/14 07:19:34;;;;;;;;;0.00;0.00;;;;;10.62;89.43;100936.41;5015463;28;45480;-84
2023/01/14 07:21:59;;;;;;;;;0.25;0.25;;;;;10.64;89.75;100932.00;5014801;28;60681;-84
2023/01/14 07:24:24;;;;;;;;;0.00;0.00;;;;;10.65;89.91;100925.03;5015255;28;45526;-82
2023/01/14 07:26:50;;;;;;;;;1.50;1.00;;;;;10.68;90.21;100929.31;5014758;28;64970;-84
2023/01/14 07:29:15;;;;;;;;;0.00;0.00;;;;;10.64;89.19;100923.31;5014823;28;46539;-83
2023/01/14 07:31:41;;;;;;;;;0.00;0.00;;;;;10.62;89.86;100914.72;5013183;28;69061;-82
2023/01/14 07:34:06;;;;;;;;;0.50;0.50;;;;;10.64;89.71;100894.69;5013833;28;45880;-84
2023/01/14 07:36:32;;;;;;;;;2.75;0.75;;;;;10.63;89.92;100888.63;5013819;28;45338;-84
2023/01/14 07:38:57;;;;;;;;;2.00;0.00;;;;;10.65;90.43;100889.44;5013880;28;47359;-84
2023/01/14 07:41:22;;;;;;;;;0.00;0.00;;;;;10.66;90.31;100882.50;5014361;28;63232;-84
2023/01/14 07:43:52;;;;;;;;;2.00;1.00;;;;;10.64;90.46;100874.75;5014603;28;48385;-84
2023/01/14 07:46:17;;;;;;;;;0.00;0.00;;;;;10.61;89.45;100879.16;5014162;28;45453;-83
2023/01/14 07:48:49;;;;;;;;;0.50;0.00;;;;;10.62;90.77;100878.25;5012456;28;69324;-83
2023/01/14 07:51:20;;;;;;;;;2.25;0.25;;;;;10.60;90.43;100873.09;5013584;28;45369;-83
2023/01/14 07:53:49;;;;;;;;;1.00;0.00;;;;;10.59;90.54;100857.53;5014271;28;45448;-82
2023/01/14 07:56:15;;;;;;;;;0.00;0.00;;;;;10.62;90.48;100860.03;5013277;28;45522;-82
2023/01/14 07:58:40;;;;;;;;;0.00;0.00;;;;;10.65;90.74;100867.78;5029861;28;66675;-83
2023/01/14 08:01:07;;;;;;;;;0.00;0.00;;;;;10.64;90.86;100879.94;5014517;28;59825;-84
2023/01/14 08:03:32;;;;;;;;;1.50;0.00;;;;;10.64;90.93;100874.75;5012627;28;45338;-82
2023/01/14 08:06:02;;;;;;;;;3.50;0.00;;;;;10.63;91.56;100857.41;5013725;28;63771;-82
2023/01/14 08:08:28;;;;;;;;;1.50;0.00;;;;;10.63;91.88;100852.19;5003431;28;46406;-82
2023/01/14 08:11:04;;;;;;;;;0.00;0.00;;;;;10.62;91.88;100852.22;5014662;28;45392;-83
2023/01/14 08:13:30;;;;;;;;;0.00;0.00;;;;;10.58;91.71;100846.25;5013153;28;45495;-87
2023/01/14 08:15:57;;;;;;;;;2.50;0.00;;;;;10.59;91.87;100841.91;4996515;28;45402;-81
2023/01/14 08:18:23;;;;;;;;;2.00;0.00;;;;;10.61;92.13;100833.16;5014434;28;47304;-80
2023/01/14 08:20:56;;;;;;;;;0.75;0.00;;;;;10.61;92.53;100832.31;5014682;28;45503;-80
2023/01/14 08:23:21;;;;;;;;;0.75;0.00;;;;;10.59;92.66;100834.13;5018537;28;45325;-80
2023/01/14 08:25:47;;;;;;;;;0.25;0.00;;;;;10.60;92.60;100841.84;5017605;28;45313;-81
2023/01/14 08:28:12;;;;;;;;;0.25;0.00;;;;;10.59;92.31;100819.34;5016903;28;68901;-81
2023/01/14 08:30:37;;;;;;;;;2.00;0.00;;;;;10.59;92.66;100815.91;5017315;28;62149;-80
2023/01/14 08:33:03;;;;;;;;;1.00;0.00;;;;;10.58;92.64;100830.63;5018077;28;45389;-84
2023/01/14 08:35:28;;;;;;;;;1.00;0.00;;;;;10.58;92.85;100816.78;5016480;28;45572;-82
2023/01/14 08:37:53;;;;;;;;;0.00;0.00;;;;;10.60;93.32;100802.81;5017557;28;46213;-81
2023/01/14 08:40:19;;;;;;;;;0.00;0.00;;;;;10.62;93.47;100832.28;5016822;28;58209;-82
2023/01/14 08:42:44;;;;;;;;;0.00;0.00;;;;;10.61;92.73;100822.75;5026547;28;51582;-81
2023/01/14 08:45:10;;;;;;;;;0.00;0.00;;;;;10.64;93.62;100817.47;5025798;28;63241;-81
2023/01/14 08:47:35;;;;;;;;;1.25;0.00;;;;;10.67;93.44;100800.91;5032945;28;47922;-84
2023/01/14 08:50:00;;;;;;;;;2.50;0.00;;;;;10.71;93.62;100799.91;5016543;28;45315;-84
2023/01/14 08:52:27;;;;;;;;;1.75;0.00;;;;;10.75;93.01;100798.06;5015853;28;45496;-83
2023/01/14 08:54:52;;;;;;;;;0.75;0.75;;;;;10.78;93.09;100801.44;5015725;28;45477;-83
2023/01/14 08:57:17;;;;;;;;;0.25;0.25;;;;;10.84;92.46;100803.03;4999219;28;47254;-82
2023/01/14 08:59:43;;;;;;;;;2.75;0.00;;;;;10.88;92.58;100816.81;5016661;28;65474;-82
2023/01/14 09:02:13;;;;;;;;;1.00;0.00;;;;;10.92;92.80;100805.38;5017350;28;45511;-82
2023/01/14 09:04:39;;;;;;;;;0.00;0.00;;;;;10.96;92.91;100773.19;5017116;28;45468;-83
2023/01/14 09:18:02;;;;;;;;;2.75;1.50;;;;;11.21;92.52;100750.66;5017128;28;45758;-81
2023/01/14 09:20:35;;;;;;;;;0.00;0.00;;;;;11.27;91.53;100770.47;5015987;28;45224;-81
2023/01/14 09:23:01;;;;;;;;;2.50;0.00;;;;;11.29;92.02;100758.25;5015831;28;45418;-82
2023/01/14 09:25:26;;;;;;;;;1.25;0.00;;;;;11.33;91.65;100756.38;4996067;28;45278;-82
2023/01/14 09:27:52;;;;;;;;;2.00;0.00;;;;;11.37;91.25;100755.41;4995630;28;65216;-82
2023/01/14 09:30:17;;;;;;;;;5.00;0.00;;;;;11.39;91.18;100743.19;5017317;28;45230;-83
2023/01/14 09:32:44;;;;;;;;;0.25;0.00;;;;;11.42;91.32;100743.06;5016554;28;61486;-81
2023/01/14 09:35:09;;;;;;;;;0.00;0.00;;;;;11.45;91.70;100739.53;5016749;28;45448;-82
2023/01/14 09:37:35;;;;;;;;;3.75;0.25;;;;;11.49;90.97;100752.38;4998133;28;58827;-82
2023/01/14 09:40:01;;;;;;;;;1.00;0.00;;;;;11.48;91.07;100745.50;5016707;28;45334;-81
2023/01/14 09:42:38;;;;;;;;;0.75;0.00;;;;;11.49;90.98;100739.34;5015639;28;46083;-82
2023/01/14 09:45:22;;;;;;;;;0.50;0.00;;;;;11.51;90.93;100727.13;5015601;28;45565;-83
2023/01/14 09:47:48;;;;;;;;;0.00;0.00;;;;;11.52;91.26;100728.00;5016136;28;45549;-82
2023/01/14 09:50:18;;;;;;;;;0.00;0.00;;;;;11.53;90.52;100729.69;5016511;28;45450;-87
2023/01/14 09:52:51;;;;;;;;;1.00;0.00;;;;;11.55;91.42;100726.13;5015241;28;45335;-84
2023/01/14 09:55:21;;;;;;;;;0.75;0.00;;;;;11.60;90.89;100712.94;5015811;28;45434;-83
2023/01/14 09:57:53;;;;;;;;;0.00;0.00;;;;;11.60;90.68;100695.53;5016663;28;46697;-85
2023/01/14 10:00:28;;;;;;;;;2.00;0.00;;;;;11.65;90.41;100705.81;5015492;28;46108;-83
2023/01/14 10:02:57;;;;;;;;;0.00;0.00;;;;;11.66;90.13;100704.91;5016858;28;45537;-82
2023/01/14 10:05:29;;;;;;;;;2.25;0.00;;;;;11.68;90.74;100686.59;5016930;28;45530;-82
2023/01/14 10:07:56;;;;;;;;;3.00;0.00;;;;;11.73;90.26;100700.34;5016071;28;46311;-81
2023/01/14 10:10:29;;;;;;;;;1.00;0.50;;;;;11.73;90.56;100709.00;5016632;28;45264;-81
2023/01/14 10:12:57;;;;;;;;;0.00;0.00;;;;;11.77;90.04;100701.94;5015675;28;45350;-83
2023/01/14 10:15:39;;;;;;;;;0.25;0.00;;;;;11.80;90.24;100707.91;5016597;28;45604;-83
2023/01/14 10:18:13;;;;;;;;;1.75;0.00;;;;;11.82;89.99;100689.59;5015374;28;46436;-82
2023/01/14 10:20:55;;;;;;;;;0.00;0.00;;;;;11.87;90.22;100686.81;5015172;28;45382;-83
2023/01/14 10:23:27;;;;;;;;;0.00;0.00;;;;;11.91;89.78;100670.19;5018107;28;45441;-82
2023/01/14 10:25:54;;;;;;;;;0.00;0.00;;;;;11.88;89.69;100673.72;5015570;28;45407;-82
2023/01/14 10:28:25;;;;;;;;;0.75;0.75;;;;;11.89;90.54;100687.63;5016179;28;45514;-85
2023/01/14 10:30:52;;;;;;;;;0.00;0.00;;;;;11.84;89.76;100689.53;5015170;28;45469;-82
2023/01/14 10:33:20;;;;;;;;;0.00;0.00;;;;;11.84;90.38;100673.91;5016454;28;45377;-83
2023/01/14 10:35:58;;;;;;;;;1.50;0.00;;;;;11.85;90.72;100675.59;5015894;28;45481;-83
2023/01/14 10:38:26;;;;;;;;;1.00;0.00;;;;;11.85;90.97;100671.25;4998405;28;47788;-82
2023/01/14 10:40:58;;;;;;;;;0.75;0.00;;;;;11.84;91.37;100669.53;5015042;28;45358;-82
2023/01/14 10:43:36;;;;;;;;;1.25;0.00;;;;;11.86;91.55;100649.44;5014540;28;45492;-82
2023/01/14 10:46:01;;;;;;;;;0.00;0.00;;;;;11.89;91.13;100656.34;5014853;28;45404;-82
2023/01/14 10:48:29;;;;;;;;;0.00;0.00;;;;;11.90;91.84;100665.88;5014782;28;47178;-82
2023/01/14 10:51:47;;;;;;;;;0.00;0.00;;;;;11.90;91.61;100665.88;5014532;28;45406;-82
2023/01/14 10:54:15;;;;;;;;;0.00;0.00;;;;;11.84;91.43;100661.69;5000852;28;45536;-80
2023/01/14 10:56:52;;;;;;;;;1.00;0.00;;;;;11.83;91.68;100646.97;5014852;28;45293;-81
2023/01/14 10:59:49;;;;;;;;;0.75;0.75;;;;;11.83;92.08;100644.38;4998130;28;47136;-82
2023/01/14 11:40:22;;;;;;;;;1.00;1.00;;;;;12.08;92.56;100545.22;4994877;28;45479;-83
2023/01/14 11:50:22;;;;;;;;;0.00;0.00;;;;;11.98;93.54;100530.81;4993414;28;45724;-81
2023/01/14 11:53:16;;;;;;;;;0.00;0.00;;;;;11.97;93.73;100516.06;4992986;28;45657;-82
2023/01/14 11:55:44;;;;;;;;;2.00;0.25;;;;;11.99;93.75;100506.44;4994324;28;45439;-81
2023/01/14 11:58:09;;;;;;;;;3.50;1.00;;;;;11.98;92.97;100504.75;5030204;28;45567;-81
2023/01/14 12:00:36;;;;;;;;;2.00;1.00;;;;;12.03;93.54;100499.34;4998624;28;46096;-82
2023/01/14 12:03:07;;;;;;;;;3.00;1.00;;;;;12.04;93.46;100483.63;5013437;28;45841;-81
2023/01/14 12:05:33;;;;;;;;;0.00;0.00;;;;;12.08;93.19;100479.13;4997599;28;45508;-81
2023/01/14 12:08:01;;;;;;;;;1.00;0.75;;;;;12.10;93.02;100466.88;5029043;28;57316;-81
2023/01/14 12:10:33;;;;;;;;;1.00;1.00;;;;;12.11;93.12;100460.72;4998285;28;45722;-80
2023/01/14 12:18:57;;;;;;;;;1.00;1.00;;;;;12.25;93.41;100440.16;4997746;28;45444;-81
2023/01/14 12:21:28;;;;;;;;;1.75;1.00;;;;;12.28;93.55;100445.28;4996933;28;46416;-81
2023/01/14 12:24:18;;;;;;;;;1.00;1.00;;;;;12.30;93.07;100416.50;4996791;28;45525;-80
2023/01/14 12:26:45;;;;;;;;;1.00;1.00;;;;;12.30;93.00;100432.16;4996510;28;45339;-84
2023/01/14 12:29:14;;;;;;;;;0.00;0.00;;;;;12.29;93.00;100410.41;4979650;28;60362;-82
2023/01/14 12:31:46;;;;;;;;;0.00;0.00;;;;;12.32;93.22;100409.47;4996061;28;46535;-82
2023/01/14 12:34:26;;;;;;;;;1.25;0.50;;;;;12.31;92.74;100408.63;4995389;28;45560;-82
2023/01/14 12:37:09;;;;;;;;;1.00;0.75;;;;;12.34;93.26;100403.25;4987716;28;45354;-82
2023/01/14 12:47:59;;;;;;;;;1.00;1.00;;;;;12.46;92.48;100395.81;5000878;28;45434;-83
2023/01/14 12:50:26;;;;;;;;;0.75;0.00;;;;;12.46;92.91;100359.28;5000853;28;45670;-83
2023/01/14 12:52:52;;;;;;;;;0.00;0.00;;;;;12.48;92.46;100345.25;4996629;28;46323;-80
2023/01/14 12:55:24;;;;;;;;;1.00;1.00;;;;;12.49;92.88;100341.72;4997371;28;45759;-80
2023/01/14 12:57:52;;;;;;;;;2.00;1.00;;;;;12.50;92.83;100348.66;4997681;28;45448;-81
2023/01/14 13:00:24;;;;;;;;;1.00;1.00;;;;;12.48;92.92;100345.25;4996544;28;45536;-80
2023/01/14 13:02:54;;;;;;;;;1.75;1.25;;;;;12.50;93.52;100343.44;4996839;28;46527;-79
2023/01/14 13:05:41;;;;;;;;;1.50;1.00;;;;;12.50;93.68;100347.78;4996379;28;46266;-80
2023/01/14 13:08:15;;;;;;;;;0.75;0.00;;;;;12.47;93.40;100358.38;4995328;28;45274;-81